Time;durP1;ratioP1;P1;durP2;ratioP2;P2;SDS_P1;SDS_P2;PMS_P1;PMS_P2;Temp;Humidity;BMP_temperature;BMP_pressure;BME280_temperature;BME280_humidity;BME280_pressure;Samples;Min_cycle;Max_cycle;Signal;HPM_P1;HPM_P2
2022/05/20 00:00:42;;;;;;;6.82;3.08;;;;;;;14.48;54.42;101045.19;5077245;28;20068;-77
2022/05/20 00:03:11;;;;;;;8.68;3.42;;;;;;;14.31;54.59;101047.09;5076809;28;20507;-75
2022/05/20 00:05:41;;;;;;;8.82;3.42;;;;;;;14.21;55.94;101043.25;5076859;28;20052;-77
2022/05/20 00:08:10;;;;;;;8.70;3.70;;;;;;;14.36;55.54;101048.59;5075652;28;20053;-79
2022/05/20 00:10:38;;;;;;;9.40;3.75;;;;;;;14.26;55.59;101046.50;5076776;28;20473;-79
2022/05/20 00:13:07;;;;;;;5.43;3.30;;;;;;;14.19;55.82;101050.56;5075858;28;20052;-79
2022/05/20 00:15:35;;;;;;;8.07;3.58;;;;;;;14.10;56.10;101051.13;5076857;28;20045;-79
2022/05/20 00:18:03;;;;;;;14.80;6.15;;;;;;;14.12;55.80;101038.47;5076654;28;20040;-79
2022/05/20 00:20:31;;;;;;;12.45;4.45;;;;;;;14.19;55.14;101045.19;5076814;28;20045;-79
2022/05/20 00:23:03;;;;;;;9.18;3.72;;;;;;;14.41;54.41;101039.31;5076757;28;20466;-78
2022/05/20 00:25:49;;;;;;;10.02;4.28;;;;;;;14.43;54.29;101036.53;5076731;28;20036;-81
2022/05/20 00:28:20;;;;;;;9.52;4.30;;;;;;;14.41;54.43;101039.31;5075772;28;20052;-78
2022/05/20 00:30:54;;;;;;;7.80;3.92;;;;;;;14.33;55.35;101033.56;5076576;28;20133;-78
2022/05/20 00:33:23;;;;;;;10.68;4.78;;;;;;;14.32;55.10;101035.41;5076493;28;20086;-80
2022/05/20 00:35:51;;;;;;;8.38;4.00;;;;;;;14.37;55.52;101034.22;5074925;28;20056;-80
2022/05/20 00:38:21;;;;;;;10.65;4.60;;;;;;;14.40;55.52;101031.38;5076455;28;20401;-79
2022/05/20 00:40:53;;;;;;;8.27;4.32;;;;;;;14.43;55.20;101032.03;5076907;28;20423;-79
2022/05/20 00:43:34;;;;;;;8.60;3.90;;;;;;;14.02;59.29;101029.28;5076694;28;20075;-79
2022/05/20 00:46:06;;;;;;;9.07;3.45;;;;;;;13.34;62.60;101043.22;5076094;28;20052;-78
2022/05/20 00:48:37;;;;;;;9.13;3.45;;;;;;;13.11;64.10;101047.19;5076451;28;20044;-78
2022/05/20 00:51:09;;;;;;;8.75;3.45;;;;;;;13.00;65.05;101041.59;5075906;28;20059;-78
2022/05/20 00:53:42;;;;;;;9.93;3.70;;;;;;;12.78;66.62;101051.81;5073826;28;20086;-72
2022/05/20 00:56:13;;;;;;;;;;;;;;;12.71;67.40;101053.13;5074898;28;20051;-74
2022/05/20 00:58:42;;;;;;;7.22;2.90;;;;;;;12.65;67.79;101056.16;5074949;28;20297;-70
2022/05/20 01:01:11;;;;;;;8.48;3.75;;;;;;;12.64;68.37;101057.06;5074572;28;20068;-70
2022/05/20 01:03:40;;;;;;;9.85;3.75;;;;;;;12.54;69.27;101052.22;5074366;28;20045;-70
2022/05/20 01:06:12;;;;;;;6.93;2.92;;;;;;;12.57;69.38;101056.56;5074117;28;20068;-74
2022/05/20 01:08:42;;;;;;;6.93;3.30;;;;;;;12.48;70.16;101054.41;5075064;28;20044;-76
2022/05/20 01:11:11;;;;;;;7.45;3.47;;;;;;;12.47;71.09;101048.19;5074614;28;20041;-76
2022/05/20 01:13:40;;;;;;;10.40;3.20;;;;;;;12.63;68.84;101052.69;5073635;28;20147;-76
2022/05/20 01:16:11;;;;;;;9.32;3.80;;;;;;;12.60;68.12;101043.88;5074248;28;20124;-76
2022/05/20 01:18:43;;;;;;;9.77;3.92;;;;;;;12.61;68.69;101039.38;5074646;28;20432;-74
2022/05/20 01:21:12;;;;;;;8.55;3.28;;;;;;;12.50;68.18;101044.47;5074315;28;20050;-74
2022/05/20 01:23:41;;;;;;;8.52;3.80;;;;;;;12.37;67.10;101044.31;5074585;28;20469;-74
2022/05/20 01:26:10;;;;;;;7.63;3.42;;;;;;;12.39;67.85;101033.50;5074323;28;20041;-74
2022/05/20 01:28:38;;;;;;;7.55;3.88;;;;;;;12.52;65.05;101043.44;5074481;28;20054;-74
2022/05/20 01:31:11;;;;;;;8.48;4.10;;;;;;;12.65;62.97;101045.44;5074079;28;20075;-74
2022/05/20 01:33:41;;;;;;;10.05;3.75;;;;;;;12.87;62.34;101035.25;5074495;28;20090;-74
2022/05/20 01:36:12;;;;;;;6.43;3.70;;;;;;;12.97;61.25;101031.09;5074119;28;20044;-75
2022/05/20 01:38:42;;;;;;;8.10;4.00;;;;;;;12.97;61.41;101030.22;5073020;28;20044;-74
2022/05/20 01:41:14;;;;;;;8.43;4.57;;;;;;;12.86;61.75;101029.03;5072810;28;20048;-75
2022/05/20 01:43:52;;;;;;;10.10;4.60;;;;;;;12.74;61.69;101035.09;5089955;28;20044;-75
2022/05/20 01:46:34;;;;;;;10.00;4.75;;;;;;;12.57;62.42;101030.69;5074161;28;20413;-74
2022/05/20 01:49:42;;;;;;;7.32;4.18;;;;;;;12.58;62.27;101023.50;5073997;28;20402;-75
2022/05/20 01:52:18;;;;;;;8.82;4.25;;;;;;;12.59;62.58;101025.22;5008955;28;1296436;-73
2022/05/20 01:54:56;;;;;;;11.75;5.60;;;;;;;12.81;60.70;101019.53;5074741;28;20071;-73
2022/05/20 01:57:31;;;;;;;11.25;5.90;;;;;;;12.60;61.45;101022.47;5074953;28;20068;-73
2022/05/20 02:00:05;;;;;;;11.48;5.85;;;;;;;12.39;62.90;101017.47;5074905;28;20423;-75
2022/05/20 02:02:42;;;;;;;9.80;5.93;;;;;;;12.39;62.55;101007.63;5074568;28;20086;-75
2022/05/20 02:05:17;;;;;;;9.90;5.55;;;;;;;12.47;62.16;101005.38;5073056;28;20046;-75
2022/05/20 02:07:50;;;;;;;8.65;5.47;;;;;;;12.57;61.62;100995.88;5074865;28;20043;-74
2022/05/20 02:10:25;;;;;;;12.10;6.32;;;;;;;12.59;61.84;100993.13;5074224;28;20146;-73
2022/05/20 02:12:58;;;;;;;10.45;6.00;;;;;;;12.60;61.44;100995.69;5074616;28;20492;-75
2022/05/20 02:15:31;;;;;;;11.75;6.65;;;;;;;12.58;61.43;100996.75;5073606;28;20072;-74
2022/05/20 02:18:03;;;;;;;13.10;6.47;;;;;;;12.54;61.51;100996.03;5073614;28;20047;-78
2022/05/20 02:20:38;;;;;;;12.65;6.35;;;;;;;12.42;61.80;100998.56;5073431;28;20098;-75
2022/05/20 02:23:13;;;;;;;10.18;6.15;;;;;;;12.24;63.01;101003.97;5074438;28;20068;-77
2022/05/20 02:25:48;;;;;;;10.50;6.35;;;;;;;12.24;63.05;101003.97;5074468;28;20045;-77
2022/05/20 02:28:21;;;;;;;11.57;6.68;;;;;;;12.23;63.27;101006.72;5074085;28;20048;-76
2022/05/20 02:30:51;;;;;;;9.75;6.15;;;;;;;12.16;63.92;101005.34;5074394;28;20047;-76
2022/05/20 02:33:22;;;;;;;11.50;6.07;;;;;;;12.07;64.63;101005.88;5073966;28;20044;-76
2022/05/20 02:35:51;;;;;;;13.98;6.57;;;;;;;11.97;65.03;100998.34;5074251;28;20059;-76
2022/05/20 02:38:21;;;;;;;12.65;6.38;;;;;;;11.96;65.63;100999.25;5074067;28;20123;-76
2022/05/20 02:40:53;;;;;;;11.98;5.88;;;;;;;11.90;66.10;100994.25;5074306;28;20088;-84
2022/05/20 02:43:23;;;;;;;17.83;6.78;;;;;;;11.91;66.12;100997.81;5073912;28;20040;-85
2022/05/20 02:45:53;;;;;;;12.82;6.15;;;;;;;11.93;65.86;100991.41;5073642;28;20086;-75
2022/05/20 02:48:23;;;;;;;10.80;5.78;;;;;;;11.91;66.07;100984.44;5073610;28;20119;-76
2022/05/20 02:50:51;;;;;;;13.65;6.38;;;;;;;12.03;65.28;100984.63;5073626;28;20071;-76
2022/05/20 02:53:19;;;;;;;12.70;6.43;;;;;;;12.08;65.04;100984.38;5073662;28;20439;-73
2022/05/20 02:55:48;;;;;;;8.95;5.40;;;;;;;12.18;64.47;100992.75;5072662;28;20467;-77
2022/05/20 03:06:30;;;;;;;12.15;5.85;;;;;;;12.12;64.46;100983.25;5072438;28;20047;-79
2022/05/20 03:08:58;;;;;;;12.15;6.35;;;;;;;12.01;65.11;100974.97;5073463;28;20061;-79
2022/05/20 03:11:28;;;;;;;10.48;5.78;;;;;;;11.97;65.06;100978.75;5073603;28;20072;-76
2022/05/20 03:13:58;;;;;;;11.75;5.13;;;;;;;12.04;64.33;100981.00;5073616;28;20036;-77
2022/05/20 03:16:26;;;;;;;7.70;4.80;;;;;;;12.11;63.30;100986.88;5073502;28;20396;-76
2022/05/20 03:18:54;;;;;;;10.95;4.60;;;;;;;12.12;63.58;100993.09;5073565;28;20044;-76
2022/05/20 03:21:22;;;;;;;10.38;4.82;;;;;;;12.19;62.72;100986.47;5073222;28;20466;-77
2022/05/20 03:23:51;;;;;;;8.55;4.50;;;;;;;12.42;61.01;100986.03;5073511;28;20102;-78
2022/05/20 03:26:20;;;;;;;8.93;4.25;;;;;;;12.49;60.94;100982.06;5072808;28;20105;-76
2022/05/20 03:28:48;;;;;;;8.57;4.68;;;;;;;12.60;60.58;100984.13;5073274;28;20040;-76
2022/05/20 03:31:18;;;;;;;14.10;4.55;;;;;;;12.59;61.20;100985.94;5073029;28;20068;-76
2022/05/20 03:33:47;;;;;;;10.80;4.63;;;;;;;12.54;61.57;100988.00;5073329;28;20037;-79
2022/05/20 03:36:15;;;;;;;11.90;4.30;;;;;;;12.49;62.20;100987.41;5072723;28;20043;-76
2022/05/20 03:38:45;;;;;;;14.27;5.03;;;;;;;12.51;61.68;100981.97;5073198;28;20036;-77
2022/05/20 03:41:13;;;;;;;8.35;4.32;;;;;;;12.58;61.65;100992.25;5072744;28;20088;-77
2022/05/20 03:43:42;;;;;;;9.95;4.68;;;;;;;12.64;61.55;100982.13;5073237;28;20041;-76
2022/05/20 03:46:10;;;;;;;11.23;4.50;;;;;;;12.66;60.53;100981.13;5072907;28;20090;-74
2022/05/20 03:48:40;;;;;;;7.57;4.28;;;;;;;12.82;59.74;100975.72;5073111;28;20048;-74
2022/05/20 03:51:09;;;;;;;10.00;4.60;;;;;;;12.90;59.12;100976.16;5071464;28;20063;-77
2022/05/20 03:53:38;;;;;;;11.88;4.07;;;;;;;13.02;58.20;100974.56;5072020;28;20478;-74
2022/05/20 03:56:07;;;;;;;10.02;4.28;;;;;;;13.26;57.10;100972.28;5071445;28;20102;-79
2022/05/20 03:58:36;;;;;;;10.20;4.25;;;;;;;13.38;56.48;100971.53;5073274;28;20070;-78
2022/05/20 04:03:53;;;;;;;8.05;4.20;;;;;;;13.62;56.33;100975.44;5073258;28;20041;-75
2022/05/20 04:06:22;;;;;;;8.80;4.60;;;;;;;13.79;55.53;100970.81;5072677;28;20478;-75
2022/05/20 04:08:50;;;;;;;9.60;4.20;;;;;;;13.96;54.79;100970.63;5072876;28;20040;-75
2022/05/20 04:11:18;;;;;;;9.23;3.88;;;;;;;14.28;53.79;100969.47;5072823;28;20473;-76
2022/05/20 04:13:47;;;;;;;10.43;4.63;;;;;;;14.52;53.43;100958.13;5073167;28;20048;-76
2022/05/20 04:16:17;;;;;;;9.93;4.72;;;;;;;14.98;52.63;100973.88;5072798;28;20087;-76
2022/05/20 04:18:45;;;;;;;9.77;4.25;;;;;;;15.37;51.06;100990.00;5073040;28;20429;-75
2022/05/20 04:21:16;;;;;;;11.02;4.65;;;;;;;15.45;51.25;100979.59;5072629;28;20036;-76
2022/05/20 04:23:45;;;;;;;12.80;5.72;;;;;;;15.65;51.32;100980.06;5071676;28;20465;-75
2022/05/20 04:26:13;;;;;;;12.02;4.78;;;;;;;15.76;50.69;100977.47;5072568;28;20072;-75
2022/05/20 04:28:41;;;;;;;9.88;4.95;;;;;;;16.01;50.52;100966.66;5071493;28;20497;-75
2022/05/20 04:31:12;;;;;;;11.00;5.82;;;;;;;16.62;49.56;100960.50;5072483;28;20127;-75
2022/05/20 04:33:40;;;;;;;11.68;5.82;;;;;;;17.27;48.22;100968.16;5071696;28;20052;-73
2022/05/20 04:36:09;;;;;;;11.40;5.50;;;;;;;18.05;45.35;100971.03;5072538;28;20045;-74
2022/05/20 04:38:38;;;;;;;9.55;5.07;;;;;;;18.79;43.34;100968.59;5072624;28;20120;-78
2022/05/20 04:49:23;;;;;;;14.02;5.30;;;;;;;17.91;45.68;100984.75;5075716;28;20120;-71
2022/05/20 04:51:51;;;;;;;15.23;5.60;;;;;;;17.61;46.12;100979.91;5075915;28;20436;-71
2022/05/20 04:57:21;;;;;;;13.32;5.88;;;;;;;17.29;47.15;100968.94;5060691;28;20411;-72
2022/05/20 04:59:51;;;;;;;14.55;5.80;;;;;;;17.32;47.15;100960.59;5074852;28;20421;-70
2022/05/20 05:02:19;;;;;;;14.50;5.80;;;;;;;17.42;47.17;100956.19;5074430;28;20048;-72
2022/05/20 05:04:48;;;;;;;11.48;5.68;;;;;;;17.58;46.94;100959.44;5074541;28;20452;-73
2022/05/20 05:07:16;;;;;;;14.00;6.50;;;;;;;17.97;46.23;100973.50;5075193;28;20044;-70
2022/05/20 05:09:46;;;;;;;11.75;6.20;;;;;;;18.34;45.94;100976.78;5075724;28;20127;-72
2022/05/20 05:12:15;;;;;;;13.32;5.95;;;;;;;18.77;44.65;100968.72;5075636;28;20052;-72
2022/05/20 05:14:46;;;;;;;11.15;5.15;;;;;;;19.12;43.80;100967.63;5075164;28;20123;-74
2022/05/20 05:17:17;;;;;;;11.70;5.80;;;;;;;19.81;42.41;100969.84;5075247;28;20079;-72
2022/05/20 05:19:48;;;;;;;10.68;5.45;;;;;;;20.08;41.47;100982.81;5074343;28;20056;-71
2022/05/20 05:22:16;;;;;;;12.60;5.78;;;;;;;20.63;40.21;100983.28;5075119;28;20064;-71
2022/05/20 05:24:45;;;;;;;14.05;6.03;;;;;;;21.26;39.47;100991.91;5075118;28;20504;-72
2022/05/20 05:27:13;;;;;;;11.38;5.18;;;;;;;21.50;38.64;100981.47;5075061;28;20127;-72
2022/05/20 05:29:42;;;;;;;14.10;5.88;;;;;;;21.39;38.27;100981.66;5074038;28;20048;-71
2022/05/20 05:32:10;;;;;;;8.30;4.80;;;;;;;22.09;37.11;100971.34;5074695;28;20578;-72
2022/05/20 05:34:38;;;;;;;16.20;6.28;;;;;;;21.39;38.55;100966.22;5075019;28;20406;-72
2022/05/20 05:37:06;;;;;;;13.13;5.30;;;;;;;21.76;38.79;100967.28;5073849;28;20060;-72
2022/05/20 05:39:35;;;;;;;12.07;5.85;;;;;;;22.34;37.18;100958.94;5075358;28;20094;-72
2022/05/20 05:42:08;;;;;;;10.45;5.50;;;;;;;23.07;36.46;100962.50;5075086;28;20051;-72
2022/05/20 05:44:36;;;;;;;;;;;;;;;23.87;34.34;100961.44;5074267;28;20100;-72
2022/05/20 05:47:05;;;;;;;10.68;5.22;;;;;;;24.31;33.73;100961.31;5073537;28;19947;-72
2022/05/20 05:49:33;;;;;;;13.40;5.85;;;;;;;24.43;33.62;100954.59;5073318;28;20478;-72
2022/05/20 05:52:01;;;;;;;32.17;8.80;;;;;;;24.92;33.27;100951.97;5074449;28;20056;-72
2022/05/20 05:54:30;;;;;;;20.92;6.50;;;;;;;25.18;32.44;100953.72;5072337;28;20048;-70
2022/05/20 05:57:07;;;;;;;10.13;5.13;;;;;;;24.57;33.98;100960.41;5073581;28;20405;-72
2022/05/20 05:59:37;;;;;;;16.83;5.13;;;;;;;24.49;33.78;100943.00;5074468;28;20045;-72
2022/05/20 06:02:08;;;;;;;12.20;5.43;;;;;;;24.46;34.48;100956.13;5073421;28;20452;-71
2022/05/20 06:04:36;;;;;;;14.10;5.18;;;;;;;25.06;33.10;100956.78;5073261;28;20090;-71
2022/05/20 06:07:06;;;;;;;8.10;4.25;;;;;;;25.14;32.87;100955.09;5074516;28;20037;-71
2022/05/20 06:09:35;;;;;;;8.32;4.40;;;;;;;25.14;31.99;100952.34;5074252;28;20554;-71
2022/05/20 06:12:04;;;;;;;10.25;5.18;;;;;;;24.17;33.59;100959.19;5072808;28;20158;-71
2022/05/20 06:14:34;;;;;;;9.80;4.22;;;;;;;24.69;33.20;100957.19;5073029;28;20489;-71
2022/05/20 06:17:04;;;;;;;8.65;4.28;;;;;;;25.36;32.13;100951.66;5074479;28;20128;-71
2022/05/20 06:19:32;;;;;;;10.65;4.53;;;;;;;26.17;31.07;100945.22;5072893;28;20446;-73
2022/05/20 06:22:00;;;;;;;10.02;4.30;;;;;;;26.77;30.24;100959.13;5072855;28;20080;-72
2022/05/20 06:24:28;;;;;;;7.07;4.00;;;;;;;25.86;30.49;100947.88;5073990;28;20041;-72
2022/05/20 06:26:57;;;;;;;11.05;4.38;;;;;;;25.95;29.36;100952.28;5073808;28;20067;-72
2022/05/20 06:29:25;;;;;;;8.68;4.10;;;;;;;26.62;28.04;100938.19;5073905;28;20040;-76
2022/05/20 06:31:55;;;;;;;15.15;4.28;;;;;;;26.65;28.12;100933.22;5073902;28;20049;-72
2022/05/20 06:34:24;;;;;;;9.73;3.85;;;;;;;27.26;27.18;100927.81;5072612;28;20127;-72
2022/05/20 06:39:52;;;;;;;7.88;3.30;;;;;;;28.11;25.81;100930.22;5082263;28;20455;-75
2022/05/20 06:42:20;;;;;;;7.75;3.38;;;;;;;27.93;26.24;100919.63;5074001;28;20048;-73
2022/05/20 06:44:49;;;;;;;6.85;3.33;;;;;;;27.39;26.21;100917.09;5074043;28;20047;-72
2022/05/20 06:47:18;;;;;;;8.88;3.05;;;;;;;27.83;25.73;100924.56;5072291;28;20052;-74
2022/05/20 06:49:47;;;;;;;6.30;2.90;;;;;;;27.98;25.23;100922.66;5064944;28;20111;-73
2022/05/20 06:52:15;;;;;;;12.73;3.22;;;;;;;27.09;25.59;100924.38;5068942;28;20110;-79
2022/05/20 06:55:04;;;;;;;7.45;3.10;;;;;;;25.57;27.13;100932.84;5073732;28;20043;-73
2022/05/20 06:57:38;;;;;;;9.40;3.08;;;;;;;24.70;28.80;100936.22;5073381;28;20110;-73
2022/05/20 07:00:10;;;;;;;6.60;3.00;;;;;;;24.04;29.81;100937.88;5073602;28;20041;-72
2022/05/20 07:02:40;;;;;;;7.43;3.10;;;;;;;23.65;30.26;100937.47;5073469;28;20047;-71
2022/05/20 07:05:09;;;;;;;9.27;3.38;;;;;;;23.10;31.56;100943.13;5073234;28;20401;-73
2022/05/20 07:07:39;;;;;;;7.68;3.10;;;;;;;22.81;32.00;100951.50;5072929;28;20044;-74
2022/05/20 07:10:10;;;;;;;9.35;3.00;;;;;;;22.51;32.72;100941.84;5073523;28;20141;-72
2022/05/20 07:12:39;;;;;;;9.57;3.05;;;;;;;22.40;33.00;100939.31;5071763;28;20101;-70
2022/05/20 07:15:08;;;;;;;10.50;3.03;;;;;;;22.00;34.09;100938.63;5061551;28;20132;-70
2022/05/20 07:17:37;;;;;;;7.65;3.20;;;;;;;22.00;34.03;100944.06;5050759;28;20103;-71
2022/05/20 07:20:10;;;;;;;14.57;3.40;;;;;;;21.66;34.96;100943.75;5051395;28;20094;-70
2022/05/20 07:22:39;;;;;;;11.23;3.45;;;;;;;21.62;35.57;100950.47;5052764;28;20120;-70
2022/05/20 07:25:08;;;;;;;12.90;3.17;;;;;;;21.64;35.25;100948.47;5053161;28;20111;-70
2022/05/20 07:27:36;;;;;;;7.82;3.50;;;;;;;21.91;35.25;100946.81;5052920;28;20037;-70
2022/05/20 07:30:06;;;;;;;8.35;3.42;;;;;;;22.28;34.85;100950.38;5068443;28;20149;-70
2022/05/20 07:32:35;;;;;;;10.18;3.28;;;;;;;22.46;34.30;100944.13;5051938;28;20387;-70
2022/05/20 07:35:03;;;;;;;7.93;3.33;;;;;;;22.56;34.09;100940.34;5051930;28;20410;-70
2022/05/20 07:37:33;;;;;;;9.98;3.25;;;;;;;22.73;33.41;100952.25;5052725;28;20053;-70
2022/05/20 07:40:03;;;;;;;8.15;3.20;;;;;;;22.59;33.08;100954.66;5068460;28;20429;-69
2022/05/20 07:42:32;;;;;;;7.57;3.13;;;;;;;22.56;34.12;100958.53;5051447;28;20052;-69
2022/05/20 07:45:01;;;;;;;8.43;3.10;;;;;;;22.42;33.06;100943.59;5051743;28;20060;-69
2022/05/20 07:47:32;;;;;;;9.02;3.35;;;;;;;22.55;33.48;100949.50;5052697;28;20037;-69
2022/05/20 07:50:03;;;;;;;7.88;2.80;;;;;;;22.54;33.89;100958.69;5051659;28;20049;-69
2022/05/20 07:55:26;;;;;;;5.75;2.80;;;;;;;22.34;33.86;100951.66;5068142;28;20052;-69
2022/05/20 07:57:55;;;;;;;6.47;3.40;;;;;;;22.55;33.85;100959.53;5067921;28;20443;-69
2022/05/20 08:00:23;;;;;;;6.35;2.80;;;;;;;22.51;34.24;100947.25;5051317;28;20198;-69
2022/05/20 08:02:55;;;;;;;8.45;3.10;;;;;;;22.82;33.88;100947.75;5052792;28;20049;-69
2022/05/20 08:05:22;;;;;;;9.48;3.50;;;;;;;22.75;34.25;100952.94;5052508;28;20450;-69
2022/05/20 08:07:56;;;;;;;10.02;3.15;;;;;;;22.63;34.17;100953.34;5051269;28;20099;-69
2022/05/20 08:10:24;;;;;;;13.02;3.63;;;;;;;22.55;34.29;100949.50;5051209;28;20076;-69
2022/05/20 08:12:53;;;;;;;11.60;3.33;;;;;;;22.44;34.58;100938.00;5051571;28;20049;-69
2022/05/20 08:15:21;;;;;;;7.55;2.92;;;;;;;22.38;34.62;100939.44;5051474;28;20488;-69
2022/05/20 08:17:50;;;;;;;7.25;3.30;;;;;;;22.35;35.40;100934.34;5054740;28;20405;-69
2022/05/20 08:20:28;;;;;;;8.07;3.05;;;;;;;22.35;35.49;100936.19;5056005;28;20044;-70
2022/05/20 08:23:00;;;;;;;8.48;3.42;;;;;;;22.52;34.75;100929.94;5055312;28;20045;-70
2022/05/20 08:25:29;;;;;;;8.75;3.47;;;;;;;22.54;35.16;100936.06;5055157;28;20463;-70
2022/05/20 08:27:57;;;;;;;9.32;3.67;;;;;;;22.52;35.04;100928.06;5054982;28;20045;-70
2022/05/20 08:30:28;;;;;;;7.55;3.10;;;;;;;22.35;35.66;100930.75;5056313;28;20041;-70
2022/05/20 08:32:57;;;;;;;10.07;3.40;;;;;;;22.46;35.51;100938.69;5056173;28;20036;-70
2022/05/20 08:35:27;;;;;;;8.45;3.15;;;;;;;22.51;35.01;100933.69;5055817;28;20075;-70
2022/05/20 08:37:55;;;;;;;9.93;3.25;;;;;;;22.70;35.16;100929.97;5056134;28;20129;-70
2022/05/20 08:40:29;;;;;;;9.77;3.35;;;;;;;22.80;35.48;100919.88;5056197;28;20466;-71
2022/05/20 08:43:01;;;;;;;12.82;3.40;;;;;;;22.87;35.18;100914.69;5055163;28;20044;-69
2022/05/20 08:45:31;;;;;;;11.97;3.20;;;;;;;23.04;34.92;100905.66;5054531;28;20045;-70
2022/05/20 08:48:05;;;;;;;6.18;3.00;;;;;;;23.18;34.63;100902.38;5054936;28;20057;-70
2022/05/20 08:50:37;;;;;;;5.95;3.15;;;;;;;23.16;34.32;100904.38;5054449;28;20084;-70
2022/05/20 08:53:11;;;;;;;9.00;3.30;;;;;;;23.26;34.70;100905.19;5070727;28;20061;-70
2022/05/20 08:55:43;;;;;;;5.97;3.20;;;;;;;23.36;33.99;100894.19;5071200;28;20463;-70
2022/05/20 08:58:15;;;;;;;6.80;2.63;;;;;;;23.38;33.87;100893.00;5054722;28;20122;-70
2022/05/20 09:00:45;;;;;;;7.57;3.00;;;;;;;23.54;34.06;100884.06;5055598;28;20048;-70
2022/05/20 09:03:16;;;;;;;9.75;3.20;;;;;;;23.76;33.74;100885.44;5055623;28;20048;-70
2022/05/20 09:05:46;;;;;;;7.55;2.97;;;;;;;23.78;33.11;100880.69;5054271;28;20052;-70
2022/05/20 09:08:24;;;;;;;7.13;3.25;;;;;;;23.86;33.34;100874.44;5055857;28;20045;-70
2022/05/20 09:10:56;;;;;;;9.75;3.45;;;;;;;24.07;33.18;100866.69;5055532;28;20464;-70
2022/05/20 09:16:14;;;;;;;7.68;2.80;;;;;;;24.17;33.66;100858.34;5053846;28;20048;-70
2022/05/20 09:18:44;;;;;;;9.20;3.13;;;;;;;24.28;33.02;100847.16;5053957;28;20053;-70
2022/05/20 09:21:25;;;;;;;7.28;3.10;;;;;;;24.35;32.72;100845.50;5054153;28;20614;-69
2022/05/20 09:23:56;;;;;;;7.00;3.30;;;;;;;24.39;32.52;100849.59;5055522;28;20471;-70
2022/05/20 09:26:32;;;;;;;6.65;2.85;;;;;;;24.35;32.94;100850.94;5054270;28;20053;-70
2022/05/20 09:29:08;;;;;;;6.32;3.20;;;;;;;24.44;32.89;100847.22;5054185;28;20056;-70
2022/05/20 09:32:00;;;;;;;7.20;3.03;;;;;;;24.42;32.71;100843.81;5054312;28;20053;-70
2022/05/20 09:34:32;;;;;;;;;;;;;;;24.45;33.10;100842.63;5054260;28;20543;-70
2022/05/20 09:37:03;;;;;;;7.72;3.20;;;;;;;24.50;32.87;100843.81;5054133;28;19948;-70
2022/05/20 09:39:35;;;;;;;7.68;3.78;;;;;;;24.54;33.50;100833.44;5053855;28;20049;-70
2022/05/20 09:42:15;;;;;;;8.52;3.22;;;;;;;24.76;33.36;100829.19;5055185;28;20095;-70
2022/05/20 09:44:46;;;;;;;7.45;3.50;;;;;;;24.81;33.13;100819.47;5055066;28;20073;-70
2022/05/20 09:47:26;;;;;;;6.38;3.42;;;;;;;24.86;32.74;100810.75;5053588;28;20474;-70
2022/05/20 09:49:59;;;;;;;9.43;3.40;;;;;;;24.86;33.36;100818.94;5053393;28;20524;-70
2022/05/20 09:52:31;;;;;;;;;;;;;;;24.86;33.50;100824.41;5055310;28;20107;-70
2022/05/20 09:55:02;;;;;;;6.00;3.07;;;;;;;25.03;32.85;100819.81;5054908;28;19920;-70
2022/05/20 09:57:38;;;;;;;8.30;3.33;;;;;;;25.07;33.27;100821.16;5053333;28;20073;-71
2022/05/20 10:00:13;;;;;;;8.68;3.10;;;;;;;25.07;33.01;100815.72;5054944;28;20068;-72
2022/05/20 10:02:50;;;;;;;11.23;3.40;;;;;;;25.14;32.74;100816.72;5054685;28;20087;-70
2022/05/20 10:05:27;;;;;;;10.05;3.35;;;;;;;25.11;32.84;100809.75;5054627;28;20076;-71
2022/05/20 10:08:07;;;;;;;11.70;3.33;;;;;;;25.21;32.29;100823.22;5053367;28;20055;-70
2022/05/20 10:10:51;;;;;;;7.20;3.10;;;;;;;25.22;32.31;100824.06;5052673;28;20131;-70
2022/05/20 10:13:30;;;;;;;;;;;;;;;25.21;32.98;100816.91;5053832;28;20128;-70
2022/05/20 10:16:10;;;;;;;6.10;3.30;;;;;;;25.36;32.92;100818.72;5053267;28;19921;-71
2022/05/20 10:18:46;;;;;;;6.30;3.13;;;;;;;25.37;32.79;100811.38;5053790;28;20042;-72
2022/05/20 10:21:26;;;;;;;7.88;3.20;;;;;;;25.38;31.71;100824.00;5053023;28;20056;-71
2022/05/20 10:24:04;;;;;;;7.05;3.30;;;;;;;25.45;31.76;100813.25;5052484;28;20060;-72
2022/05/20 10:26:41;;;;;;;7.57;2.80;;;;;;;25.40;32.25;100806.44;5052671;28;20048;-70
2022/05/20 10:35:02;;;;;;;10.25;3.28;;;;;;;25.74;31.64;100812.66;5069319;28;20049;-72
2022/05/20 10:37:49;;;;;;;6.13;2.85;;;;;;;25.59;32.04;100802.44;5053823;28;20099;-71
2022/05/20 10:40:37;;;;;;;5.47;3.00;;;;;;;25.76;31.79;100802.41;5053402;28;20064;-71
2022/05/20 10:43:22;;;;;;;7.00;3.00;;;;;;;25.83;32.46;100801.50;5052791;28;20053;-71
2022/05/20 10:49:06;;;;;;;4.78;2.65;;;;;;;25.99;31.89;100789.66;5068895;28;20136;-70
2022/05/20 10:51:58;;;;;;;8.80;2.92;;;;;;;26.03;32.23;100782.78;5051830;28;20061;-70
2022/05/20 10:54:57;;;;;;;5.72;2.83;;;;;;;26.21;31.90;100782.50;5053837;28;20040;-70
2022/05/20 10:58:01;;;;;;;13.40;2.70;;;;;;;26.09;32.31;100779.34;5051574;28;20143;-71
2022/05/20 11:00:38;;;;;;;6.55;2.67;;;;;;;26.52;31.66;100785.22;5053655;28;20049;-71
2022/05/20 11:03:35;;;;;;;5.32;2.63;;;;;;;26.81;31.49;100773.50;5053453;28;20073;-69
2022/05/20 11:06:23;;;;;;;5.43;2.75;;;;;;;27.23;30.70;100766.63;5052420;28;20095;-70
2022/05/20 11:09:01;;;;;;;6.07;2.58;;;;;;;27.45;30.80;100770.31;5053151;28;20036;-70
2022/05/20 11:11:53;;;;;;;7.70;2.67;;;;;;;27.54;30.51;100766.44;5053283;28;20063;-71
2022/05/20 11:15:12;;;;;;;6.05;2.38;;;;;;;27.84;30.48;100757.16;5052063;28;20040;-70
2022/05/20 11:17:58;;;;;;;7.00;2.80;;;;;;;28.04;30.28;100762.00;5051873;28;20053;-70
2022/05/20 11:20:47;;;;;;;6.88;3.03;;;;;;;27.46;30.66;100753.69;5052119;28;20060;-70
2022/05/20 11:23:49;;;;;;;4.85;2.65;;;;;;;27.49;31.20;100755.19;5052768;28;20516;-70
2022/05/20 11:26:55;;;;;;;8.05;3.40;;;;;;;27.77;30.81;100753.47;5048860;28;20136;-70
2022/05/20 11:29:54;;;;;;;7.30;3.20;;;;;;;27.80;31.10;100755.00;5068659;28;20127;-70
2022/05/20 11:32:37;;;;;;;8.05;2.80;;;;;;;27.64;30.89;100747.81;5051892;28;20402;-70
2022/05/20 11:35:22;;;;;;;8.40;2.57;;;;;;;27.41;30.87;100747.06;5051825;28;20057;-70
2022/05/20 11:38:20;;;;;;;5.68;2.90;;;;;;;27.18;30.76;100741.69;5052283;28;20650;-70
2022/05/20 11:41:04;;;;;;;6.28;2.90;;;;;;;27.06;31.96;100727.63;5068041;28;20049;-70
2022/05/20 11:43:49;;;;;;;6.50;2.58;;;;;;;27.14;31.52;100727.53;5051728;28;20140;-70
2022/05/20 11:46:32;;;;;;;7.05;3.15;;;;;;;27.17;31.21;100718.94;5068499;28;20053;-70
2022/05/20 11:49:23;;;;;;;6.68;2.65;;;;;;;27.04;31.68;100718.75;5052735;28;20477;-69
2022/05/20 11:52:27;;;;;;;5.50;2.80;;;;;;;26.87;31.86;100706.25;5056492;28;20045;-70
2022/05/20 11:55:01;;;;;;;6.28;2.80;;;;;;;26.85;32.27;100702.84;5056838;28;20079;-70
2022/05/20 11:57:38;;;;;;;6.35;2.58;;;;;;;27.00;32.14;100701.81;5055835;28;20132;-70
2022/05/20 12:00:10;;;;;;;8.35;2.90;;;;;;;27.07;31.92;100713.75;5055872;28;20088;-69
2022/05/20 12:02:41;;;;;;;6.60;2.78;;;;;;;27.04;31.86;100708.66;5072172;28;20059;-72
2022/05/20 12:05:12;;;;;;;8.75;2.90;;;;;;;27.16;31.62;100703.56;5055886;28;20445;-70
2022/05/20 12:07:41;;;;;;;5.20;2.70;;;;;;;27.32;31.93;100697.88;5055545;28;20053;-72
2022/05/20 12:10:47;;;;;;;6.80;3.00;;;;;;;27.35;32.03;100700.22;5056807;28;20041;-71
2022/05/20 12:13:22;;;;;;;8.93;2.97;;;;;;;27.29;32.04;100698.25;5055595;28;20068;-69
2022/05/20 12:16:11;;;;;;;7.72;2.80;;;;;;;27.15;31.52;100690.06;5056580;28;20052;-69
2022/05/20 12:24:36;;;;;;;8.02;2.80;;;;;;;27.47;31.36;100686.88;5056689;28;20051;-71
2022/05/20 12:27:13;;;;;;;6.30;2.63;;;;;;;27.52;31.72;100689.06;5055321;28;20056;-70
2022/05/20 12:30:07;;;;;;;4.60;2.53;;;;;;;27.63;31.26;100672.97;5054855;28;20471;-72
2022/05/20 12:32:54;;;;;;;7.35;2.67;;;;;;;27.72;31.27;100672.91;5055286;28;20052;-69
2022/05/20 12:35:26;;;;;;;7.30;2.50;;;;;;;27.66;30.92;100671.75;5055471;28;20059;-70
2022/05/20 12:38:25;;;;;;;7.28;3.40;;;;;;;27.45;30.82;100660.75;5055825;28;20044;-71